createdAt,value
2023-04-29T00:01:17.929Z,93.17
2023-04-29T00:03:51.054Z,93.36
2023-04-29T00:06:18.420Z,93.38
2023-04-29T00:08:51.982Z,93.49
2023-04-29T00:11:19.021Z,93.57
2023-04-29T00:13:45.777Z,93.47
2023-04-29T00:16:18.961Z,93.46
2023-04-29T00:18:58.954Z,93.93
2023-04-29T00:21:40.019Z,94.18
2023-04-29T00:24:14.024Z,94.14
2023-04-29T00:26:41.870Z,93.88
2023-04-29T00:29:15.367Z,93.95
2023-04-29T00:31:52.006Z,94.00
2023-04-29T00:34:19.049Z,94.26
2023-04-29T00:36:53.052Z,94.20
2023-04-29T00:39:19.971Z,93.89
2023-04-29T00:41:52.979Z,94.15
2023-04-29T00:44:20.002Z,94.11
2023-04-29T00:46:52.982Z,94.14
2023-04-29T00:49:20.123Z,94.11
2023-04-29T00:51:47.575Z,94.10
2023-04-29T00:54:20.987Z,94.11
2023-04-29T00:56:48.154Z,94.11
2023-04-29T00:59:23.949Z,93.71
2023-04-29T01:01:51.652Z,93.98
2023-04-29T01:04:24.993Z,93.96
2023-04-29T01:07:16.047Z,93.74
2023-04-29T01:10:14.116Z,94.00
2023-04-29T01:12:55.003Z,93.86
2023-04-29T01:15:40.073Z,93.75
2023-04-29T01:18:34.034Z,93.81
2023-04-29T01:21:07.053Z,93.60
2023-04-29T01:23:33.900Z,93.56
2023-04-29T01:26:06.968Z,93.71
2023-04-29T01:28:43.359Z,93.36
2023-04-29T01:31:43.024Z,93.73
2023-04-29T01:34:12.281Z,93.40
2023-04-29T01:36:55.037Z,93.52
2023-04-29T01:39:38.004Z,93.40
2023-04-29T01:42:34.989Z,93.11
2023-04-29T01:45:06.913Z,93.48
2023-04-29T01:47:48.428Z,93.21
2023-04-29T01:50:26.159Z,93.18
2023-04-29T01:52:59.046Z,93.03
2023-04-29T01:55:28.110Z,93.04
2023-04-29T01:58:01.065Z,92.94
2023-04-29T02:00:28.059Z,92.81
2023-04-29T02:03:02.062Z,92.83
2023-04-29T02:05:35.153Z,92.82
2023-04-29T02:08:09.028Z,92.78
2023-04-29T02:10:42.041Z,92.72
2023-04-29T02:13:08.985Z,92.60
2023-04-29T02:15:42.022Z,92.69
2023-04-29T02:18:08.800Z,92.51
2023-04-29T02:20:42.049Z,92.70
2023-04-29T02:23:09.279Z,92.54
2023-04-29T02:25:43.074Z,92.78
2023-04-29T02:28:10.116Z,92.56
2023-04-29T02:30:43.039Z,92.78
2023-04-29T02:33:09.922Z,92.59
2023-04-29T02:35:48.061Z,92.61
2023-04-29T02:38:14.901Z,92.53
2023-04-29T02:40:50.197Z,92.71
2023-04-29T02:43:24.146Z,92.52
2023-04-29T02:45:57.138Z,92.41
2023-04-29T02:48:24.397Z,92.21
2023-04-29T02:50:58.075Z,92.07
2023-04-29T02:53:24.908Z,92.42
2023-04-29T02:55:58.953Z,92.12
2023-04-29T02:58:32.066Z,91.89
2023-04-29T03:00:58.936Z,92.07
2023-04-29T03:03:32.279Z,91.88
2023-04-29T03:05:59.217Z,91.90
2023-04-29T03:08:31.929Z,91.82
2023-04-29T03:10:59.018Z,92.04
2023-04-29T03:13:32.036Z,91.88
2023-04-29T03:16:00.844Z,91.84
2023-04-29T03:18:35.130Z,91.69
2023-04-29T03:21:15.108Z,91.70
2023-04-29T03:23:49.125Z,91.80
2023-04-29T03:26:16.295Z,91.75
2023-04-29T03:28:50.101Z,91.79
2023-04-29T03:31:17.500Z,91.30
2023-04-29T03:33:52.741Z,91.43
2023-04-29T03:36:20.038Z,91.51
2023-04-29T03:38:53.065Z,91.41
2023-04-29T03:41:20.339Z,91.39
2023-04-29T03:43:54.120Z,91.64
2023-04-29T03:46:28.130Z,91.60
2023-04-29T03:48:57.968Z,91.71
2023-04-29T03:51:32.176Z,91.35
2023-04-29T03:53:59.511Z,91.76
2023-04-29T03:56:33.125Z,91.67
2023-04-29T03:59:00.173Z,91.83
2023-04-29T04:01:36.989Z,91.78
2023-04-29T04:04:04.323Z,91.56
2023-04-29T04:06:39.040Z,91.47
2023-04-29T04:09:05.910Z,91.75
2023-04-29T04:11:39.048Z,91.70
2023-04-29T04:14:06.105Z,92.00
2023-04-29T04:16:39.102Z,91.80
2023-04-29T04:19:14.047Z,91.71
2023-04-29T04:21:48.019Z,92.01
2023-04-29T04:24:21.115Z,92.04
2023-04-29T04:26:47.986Z,92.00
2023-04-29T04:29:21.132Z,91.79
2023-04-29T04:31:48.369Z,92.05
2023-04-29T04:34:23.640Z,91.67
2023-04-29T04:36:50.512Z,91.90
2023-04-29T04:39:24.230Z,91.92
2023-04-29T04:41:51.326Z,91.81
2023-04-29T04:44:25.279Z,92.04
2023-04-29T04:46:52.673Z,91.73
2023-04-29T04:49:26.117Z,91.73
2023-04-29T04:51:53.423Z,91.62
2023-04-29T04:54:34.131Z,91.83
2023-04-29T04:57:07.066Z,91.81
2023-04-29T04:59:34.575Z,91.55
2023-04-29T05:02:08.154Z,91.66
2023-04-29T05:04:34.969Z,91.37
2023-04-29T05:07:08.090Z,91.56
2023-04-29T05:09:34.944Z,91.46
2023-04-29T05:12:08.068Z,91.35
2023-04-29T05:14:34.967Z,91.12
2023-04-29T05:17:08.081Z,91.05
2023-04-29T05:19:55.152Z,90.76
2023-04-29T05:22:29.115Z,90.76
2023-04-29T05:25:09.166Z,90.64
2023-04-29T05:27:35.940Z,90.48
2023-04-29T05:30:16.166Z,90.46
2023-04-29T05:32:49.207Z,90.42
2023-04-29T05:37:58.706Z,90.43
2023-04-29T05:40:36.426Z,90.27
2023-04-29T05:43:11.449Z,90.38
2023-04-29T05:45:47.430Z,90.23
2023-04-29T05:48:21.122Z,89.95
2023-04-29T05:50:55.320Z,89.75
2023-04-29T05:53:22.192Z,89.88
2023-04-29T05:55:57.133Z,89.98
2023-04-29T05:58:23.995Z,89.76
2023-04-29T06:00:58.667Z,90.06
2023-04-29T06:03:33.389Z,90.02
2023-04-29T06:06:07.171Z,90.01
2023-04-29T06:08:41.172Z,89.80
2023-04-29T06:11:08.291Z,89.88
2023-04-29T06:13:42.188Z,89.90
2023-04-29T06:16:09.197Z,89.59
2023-04-29T06:18:42.150Z,89.66
2023-04-29T06:21:16.513Z,89.89
2023-04-29T06:23:50.164Z,89.81
2023-04-29T06:26:17.148Z,89.76
2023-04-29T06:28:44.145Z,90.11
2023-04-29T06:31:17.233Z,89.54
2023-04-29T06:33:50.159Z,89.56
2023-04-29T06:36:24.151Z,89.70
2023-04-29T06:38:57.219Z,89.58
2023-04-29T06:41:30.109Z,89.21
2023-04-29T06:44:03.109Z,89.50
2023-04-29T06:46:30.602Z,89.65
2023-04-29T06:49:04.417Z,89.72
2023-04-29T06:51:39.151Z,89.50
2023-04-29T06:54:06.138Z,89.41
2023-04-29T06:56:39.113Z,89.52
2023-04-29T06:59:06.486Z,89.08
2023-04-29T07:01:51.564Z,88.79
2023-04-29T07:04:25.320Z,88.85
2023-04-29T07:07:14.075Z,89.05
2023-04-29T07:09:47.196Z,88.60
2023-04-29T07:12:20.213Z,88.65
2023-04-29T07:14:47.534Z,88.70
2023-04-29T07:17:21.216Z,88.56
2023-04-29T07:19:54.590Z,88.29
2023-04-29T07:22:35.178Z,87.74
2023-04-29T07:25:01.958Z,87.60
2023-04-29T07:27:36.175Z,87.70
2023-04-29T07:30:11.271Z,87.47
2023-04-29T07:32:44.161Z,87.75
2023-04-29T07:35:17.181Z,87.65
2023-04-29T07:37:51.247Z,87.26
2023-04-29T07:40:34.257Z,87.17
2023-04-29T07:43:05.109Z,86.79
2023-04-29T07:45:40.355Z,86.27
2023-04-29T07:48:07.610Z,86.33
2023-04-29T07:50:50.184Z,86.80
2023-04-29T07:53:18.153Z,85.79
2023-04-29T07:55:54.658Z,85.52
2023-04-29T07:58:22.096Z,85.45
2023-04-29T08:00:55.222Z,84.96
2023-04-29T08:03:22.229Z,83.86
2023-04-29T08:05:58.309Z,83.38
2023-04-29T08:08:25.426Z,84.33
2023-04-29T08:10:59.202Z,84.13
2023-04-29T08:13:33.124Z,83.42
2023-04-29T08:16:00.021Z,82.69
2023-04-29T08:18:33.484Z,82.85
2023-04-29T08:21:14.332Z,82.44
2023-04-29T08:23:48.181Z,80.96
2023-04-29T08:26:15.259Z,82.03
2023-04-29T08:28:49.526Z,82.44
2023-04-29T08:31:20.984Z,82.75
2023-04-29T08:33:55.584Z,81.76
2023-04-29T08:36:22.382Z,80.79
2023-04-29T08:38:59.230Z,80.71
2023-04-29T08:41:26.090Z,80.26
2023-04-29T08:43:59.276Z,78.67
2023-04-29T08:46:33.308Z,79.18
2023-04-29T08:49:04.535Z,79.65
2023-04-29T08:51:40.600Z,79.46
2023-04-29T08:54:15.225Z,76.90
2023-04-29T08:56:52.201Z,78.32
2023-04-29T08:59:27.196Z,77.42
2023-04-29T09:02:01.361Z,77.25
2023-04-29T09:04:47.729Z,76.54
2023-04-29T09:07:22.270Z,75.75
2023-04-29T09:09:49.942Z,73.92
2023-04-29T09:12:23.250Z,74.03
2023-04-29T09:14:50.317Z,74.34
2023-04-29T09:17:24.242Z,73.32
2023-04-29T09:20:11.218Z,73.35
2023-04-29T09:22:55.193Z,74.55
2023-04-29T09:25:22.517Z,73.31
2023-04-29T09:27:56.252Z,70.82
2023-04-29T09:30:29.426Z,72.68
2023-04-29T09:33:16.146Z,70.89
2023-04-29T09:35:49.200Z,72.23
2023-04-29T09:38:16.816Z,71.87
2023-04-29T09:40:59.698Z,72.39
2023-04-29T09:43:34.242Z,70.38
2023-04-29T09:46:08.291Z,70.16
2023-04-29T09:48:42.057Z,70.13
2023-04-29T09:51:16.200Z,68.51
2023-04-29T09:53:43.455Z,66.96
2023-04-29T09:56:17.201Z,65.86
2023-04-29T09:58:43.963Z,65.87
2023-04-29T10:03:56.295Z,66.15
2023-04-29T10:06:31.300Z,65.25
2023-04-29T10:08:58.503Z,65.93
2023-04-29T10:11:34.319Z,63.45
2023-04-29T10:14:02.523Z,65.02
2023-04-29T10:16:40.319Z,64.96
2023-04-29T10:19:13.060Z,64.51
2023-04-29T10:21:56.248Z,65.04
2023-04-29T10:24:30.337Z,64.49
2023-04-29T10:27:07.226Z,66.55
2023-04-29T10:29:37.310Z,66.22
2023-04-29T10:32:14.274Z,66.15
2023-04-29T10:34:43.145Z,64.69
2023-04-29T10:37:20.513Z,66.17
2023-04-29T10:40:01.692Z,66.28
2023-04-29T10:42:54.216Z,66.19
2023-04-29T10:45:27.316Z,67.76
2023-04-29T10:48:21.391Z,61.69
